Edmonton International, Canada
Current Conditions -  °F | °C
As of 8:00 PM on Tuesday 25 Nov 2014 (Local Time) from CYEG Reporting Station
Light Snow Light Snow  
Wind Chill:   Ceiling: 1600
Heat Index: 16°   Visibility: 15mi
Dew Point: 12°   Wind: 7mph
Humidity: 86%   Direction: 30°NNE
Pressure: 30.16"   Gusts: NA
Location:  53.31°N, 113.58°W
Report Text: CYEG 260300Z 03006KT 15SM -SN OVC016 M09/M11 A3016 RMK SC8 SLP261
Loading
Personal Weather Stations






























Interactive Weather Map New forecast layout! Learn more

10-Day Weather Forecast

Advertisements
Track Severe Weather on mobile